Time;durP1;ratioP1;P1;durP2;ratioP2;P2;SDS_P1;SDS_P2;PMS_P1;PMS_P2;Temp;Humidity;BMP_temperature;BMP_pressure;BME280_temperature;BME280_humidity;BME280_pressure;Samples;Min_cycle;Max_cycle;Signal;HPM_P1;HPM_P2
2022/07/26 00:01:28;;;;;;;9.40;5.00;;;;;;;19.23;48.08;98482.99;105998;1273;98085;-63
2022/07/26 00:04:01;;;;;;;9.70;4.60;;;;;;;19.22;48.14;98476.02;106034;1273;97970;-64
2022/07/26 00:06:31;;;;;;;9.60;4.80;;;;;;;19.17;48.03;98469.22;106051;1273;111979;-64
2022/07/26 00:09:00;;;;;;;10.40;4.90;;;;;;;19.11;48.21;98467.98;105978;1273;95235;-63
2022/07/26 00:11:32;;;;;;;9.80;5.00;;;;;;;19.04;48.34;98458.72;105963;1274;108373;-63
2022/07/26 00:14:06;;;;;;;11.60;4.90;;;;;;;18.99;48.49;98453.45;106090;1274;97857;-67
2022/07/26 00:16:36;;;;;;;10.40;4.70;;;;;;;18.92;48.51;98452.60;106097;1273;97860;-65
2022/07/26 00:19:08;;;;;;;13.90;5.10;;;;;;;18.82;48.85;98446.73;106095;1273;111984;-64
2022/07/26 00:21:39;;;;;;;11.40;5.00;;;;;;;18.73;48.79;98442.48;106195;1273;95211;-63
2022/07/26 00:24:10;;;;;;;9.80;5.10;;;;;;;18.68;48.98;98442.45;106140;1274;108259;-63
2022/07/26 00:26:38;;;;;;;11.00;5.10;;;;;;;18.64;48.85;98445.64;106045;1274;98035;-63
2022/07/26 00:29:08;;;;;;;10.60;5.10;;;;;;;18.58;49.12;98441.02;106066;1273;97861;-64
2022/07/26 00:31:38;;;;;;;9.80;4.70;;;;;;;18.56;49.27;98443.12;105962;1273;112049;-65
2022/07/26 00:34:08;;;;;;;12.50;4.90;;;;;;;18.54;49.45;98447.73;105984;1273;97915;-63
2022/07/26 00:36:38;;;;;;;11.50;5.00;;;;;;;18.54;49.33;98439.30;106153;1273;108302;-64
2022/07/26 00:39:10;;;;;;;8.50;4.70;;;;;;;18.55;49.22;98431.17;106117;1273;97859;-64
2022/07/26 00:41:38;;;;;;;12.00;4.50;;;;;;;18.53;49.45;98430.52;106231;1272;97896;-63
2022/07/26 00:44:06;;;;;;;9.90;5.20;;;;;;;18.50;49.65;98426.02;106150;1274;111748;-65
2022/07/26 00:46:42;;;;;;;9.40;4.50;;;;;;;18.45;49.81;98427.31;106021;1273;97000;-64
2022/07/26 00:49:12;;;;;;;;;;;;;;;18.40;49.98;98420.50;106025;1273;108351;-63
2022/07/26 00:51:41;;;;;;;8.70;4.30;;;;;;;18.32;50.03;98421.02;106097;1273;97989;-63
2022/07/26 00:54:18;;;;;;;10.70;4.80;;;;;;;18.28;50.11;98419.54;106043;1273;95218;-64
2022/07/26 00:56:47;;;;;;;10.90;4.80;;;;;;;18.24;50.18;98418.89;105996;1274;110850;-64
2022/07/26 00:59:24;;;;;;;12.10;4.70;;;;;;;18.22;50.43;98426.20;106133;1274;95188;-64
2022/07/26 01:01:57;;;;;;;9.60;4.90;;;;;;;18.22;50.63;98432.11;106042;1273;108440;-64
2022/07/26 01:04:26;;;;;;;12.40;5.00;;;;;;;18.24;50.47;98436.69;106092;1273;97924;-64
2022/07/26 01:06:59;;;;;;;9.10;4.70;;;;;;;18.26;50.59;98437.92;106137;1273;97948;-64
2022/07/26 01:09:31;;;;;;;7.90;4.70;;;;;;;18.27;50.81;98436.91;106124;1274;112082;-63
2022/07/26 01:11:59;;;;;;;11.10;4.80;;;;;;;18.28;50.74;98433.20;106107;1274;97938;-64
2022/07/26 01:14:27;;;;;;;10.40;4.90;;;;;;;18.28;50.84;98434.20;105972;1273;108441;-64
2022/07/26 01:16:55;;;;;;;11.00;5.10;;;;;;;18.28;51.00;98430.27;106135;1274;97877;-63
2022/07/26 01:19:26;;;;;;;11.10;5.20;;;;;;;18.25;51.05;98425.38;106131;1274;96577;-64
2022/07/26 01:21:57;;;;;;;8.80;4.90;;;;;;;18.23;51.18;98418.63;106195;1274;112112;-64
2022/07/26 01:24:27;;;;;;;7.90;4.60;;;;;;;18.19;51.51;98415.05;106170;1274;97760;-63
2022/07/26 01:26:55;;;;;;;11.70;5.40;;;;;;;18.13;51.74;98405.46;106149;1273;108400;-62
2022/07/26 01:29:26;;;;;;;10.70;5.10;;;;;;;18.08;51.75;98401.70;106089;1273;95368;-59
2022/07/26 01:32:06;;;;;;;12.30;4.90;;;;;;;18.07;51.92;98396.23;106230;1274;97972;-64
2022/07/26 01:34:36;;;;;;;15.90;5.30;;;;;;;18.07;52.13;98391.83;106038;1274;112046;-65
2022/07/26 01:37:04;;;;;;;13.20;5.80;;;;;;;18.03;52.25;98391.73;106093;1273;95298;-62
2022/07/26 01:39:32;;;;;;;13.70;6.00;;;;;;;17.98;52.33;98393.31;105992;1273;106976;-64
2022/07/26 01:42:02;;;;;;;13.20;6.00;;;;;;;17.94;52.31;98393.34;106007;1273;97898;-65
2022/07/26 01:44:30;;;;;;;13.20;6.20;;;;;;;17.90;52.17;98389.54;106094;1273;97899;-64
2022/07/26 01:46:58;;;;;;;15.60;6.30;;;;;;;17.86;52.33;98384.85;106015;1273;111885;-64
2022/07/26 01:49:26;;;;;;;17.10;6.60;;;;;;;17.78;52.61;98384.61;105955;1274;97870;-63
2022/07/26 01:51:54;;;;;;;15.80;6.70;;;;;;;17.71;52.86;98377.88;106107;1274;107419;-64
2022/07/26 01:54:22;;;;;;;15.40;6.20;;;;;;;17.65;52.91;98374.62;106066;1274;97964;-64
2022/07/26 01:56:51;;;;;;;13.20;5.70;;;;;;;17.63;53.04;98378.42;106173;1273;97966;-64
2022/07/26 01:59:19;;;;;;;11.80;5.20;;;;;;;17.62;52.73;98383.57;106003;1274;112083;-64
2022/07/26 02:01:46;;;;;;;15.00;5.70;;;;;;;17.61;53.00;98380.80;106087;1273;97899;-64
2022/07/26 02:05:01;;;;;;;12.40;5.50;;;;;;;17.63;53.28;98378.63;106091;1274;108392;-68
2022/07/26 02:07:03;;;;;;;12.30;5.40;;;;;;;17.64;53.32;98385.10;106033;1273;98587;-64
2022/07/26 02:09:34;;;;;;;11.30;5.10;;;;;;;17.64;53.08;98389.21;105987;1273;97984;-63
2022/07/26 02:12:07;;;;;;;10.90;5.00;;;;;;;17.66;53.11;98386.22;106033;1273;111324;-64
2022/07/26 02:14:35;;;;;;;11.80;5.00;;;;;;;17.65;53.26;98386.24;106033;1273;97888;-65
2022/07/26 02:17:03;;;;;;;13.10;5.50;;;;;;;17.66;53.32;98386.17;105883;1273;108398;-63
2022/07/26 02:19:31;;;;;;;12.10;5.40;;;;;;;17.64;53.45;98381.67;105890;1272;97857;-64
2022/07/26 02:21:59;;;;;;;11.60;5.20;;;;;;;17.63;53.55;98380.73;106158;1273;95363;-65
2022/07/26 02:24:28;;;;;;;10.80;5.30;;;;;;;17.61;53.25;98375.80;106010;1273;112051;-66
2022/07/26 02:26:58;;;;;;;9.90;5.00;;;;;;;17.53;53.25;98370.76;106163;1273;97906;-65
2022/07/26 02:29:27;;;;;;;14.70;5.30;;;;;;;17.42;53.45;98363.40;106062;1273;107912;-66
2022/07/26 02:31:56;;;;;;;11.50;5.70;;;;;;;17.35;53.80;98364.33;106100;1273;97861;-65
2022/07/26 02:34:24;;;;;;;14.80;5.60;;;;;;;17.34;53.95;98368.36;105899;1273;99282;-66
2022/07/26 02:36:52;;;;;;;13.10;6.00;;;;;;;17.36;54.17;98364.80;105986;1273;112653;-65
2022/07/26 02:39:21;;;;;;;10.80;5.40;;;;;;;17.37;54.20;98356.90;105907;1273;98492;-65
2022/07/26 02:41:49;;;;;;;13.40;6.10;;;;;;;17.38;54.05;98361.16;105983;1274;107406;-64
2022/07/26 02:44:16;;;;;;;16.40;6.40;;;;;;;17.38;54.26;98359.21;105967;1273;96258;-63
2022/07/26 02:46:44;;;;;;;14.60;6.60;;;;;;;17.35;54.01;98363.13;105991;1273;97857;-63
2022/07/26 02:49:12;;;;;;;12.30;5.90;;;;;;;17.29;54.09;98363.02;105892;1273;111080;-63
2022/07/26 02:51:40;;;;;;;13.40;6.30;;;;;;;17.26;54.30;98363.19;105914;1273;97986;-63
2022/07/26 02:54:08;;;;;;;12.50;6.00;;;;;;;17.26;54.46;98364.07;105937;1273;107855;-64
2022/07/26 02:56:37;;;;;;;15.00;6.10;;;;;;;17.27;54.38;98359.15;105970;1273;97847;-65
2022/07/26 02:59:07;;;;;;;11.80;5.50;;;;;;;17.26;54.33;98354.41;106026;1273;97973;-63
2022/07/26 03:01:37;;;;;;;13.10;5.80;;;;;;;17.20;54.32;98349.12;105959;1273;112219;-62
2022/07/26 03:04:08;;;;;;;10.80;5.10;;;;;;;17.13;54.40;98341.56;106013;1273;97290;-64
2022/07/26 03:06:37;;;;;;;10.90;5.40;;;;;;;17.07;54.60;98337.33;106023;1273;108386;-64
2022/07/26 03:09:05;;;;;;;12.80;5.40;;;;;;;17.04;54.57;98339.98;105938;1273;97990;-66
2022/07/26 03:11:33;;;;;;;13.10;5.30;;;;;;;17.01;54.79;98336.02;105992;1273;95319;-64
2022/07/26 03:14:01;;;;;;;13.60;5.90;;;;;;;17.01;54.81;98333.21;105895;1274;111341;-64
2022/07/26 03:16:30;;;;;;;12.00;5.90;;;;;;;17.02;55.12;98333.83;106070;1273;95172;-63
2022/07/26 03:19:00;;;;;;;12.20;5.50;;;;;;;17.04;55.08;98334.25;106108;1273;107973;-64
2022/07/26 03:21:28;;;;;;;12.20;5.50;;;;;;;17.07;55.13;98335.36;106141;1273;97953;-65
2022/07/26 03:23:56;;;;;;;15.50;6.30;;;;;;;17.10;55.14;98329.20;106072;1274;97978;-63
2022/07/26 03:26:24;;;;;;;12.80;5.40;;;;;;;17.10;55.02;98327.02;105974;1273;111373;-64
2022/07/26 03:28:52;;;;;;;12.40;5.80;;;;;;;17.09;55.21;98322.83;105953;1273;97719;-63
2022/07/26 03:31:22;;;;;;;12.20;5.60;;;;;;;17.10;55.43;98326.29;105952;1273;108343;-63
2022/07/26 03:33:50;;;;;;;11.50;5.50;;;;;;;17.11;55.18;98324.36;105923;1274;97885;-63
2022/07/26 03:36:19;;;;;;;11.20;5.20;;;;;;;17.10;55.49;98317.28;106018;1274;96494;-62
2022/07/26 03:38:47;;;;;;;10.90;5.50;;;;;;;17.12;55.44;98317.48;105982;1273;112006;-65
2022/07/26 03:41:15;;;;;;;12.30;5.70;;;;;;;17.10;55.46;98315.27;105985;1274;97913;-64
2022/07/26 03:43:42;;;;;;;10.60;5.50;;;;;;;17.12;55.73;98313.91;105851;1273;108389;-64
2022/07/26 03:46:11;;;;;;;11.10;5.30;;;;;;;17.17;55.93;98315.08;105812;1273;98956;-65
2022/07/26 03:48:39;;;;;;;13.40;5.90;;;;;;;17.22;55.90;98312.40;105658;1273;268065;-63
2022/07/26 03:51:07;;;;;;;16.70;6.20;;;;;;;17.28;55.86;98310.67;105793;1273;112039;-64
2022/07/26 03:53:34;;;;;;;16.40;6.40;;;;;;;17.32;55.76;98308.48;105929;1273;97873;-62
2022/07/26 03:58:49;;;;;;;16.80;6.90;;;;;;;17.34;55.94;98299.05;105923;1273;97984;-63
2022/07/26 04:01:17;;;;;;;16.60;8.00;;;;;;;17.37;55.94;98301.59;105844;1274;96500;-63
2022/07/26 04:03:44;;;;;;;21.40;9.80;;;;;;;17.39;55.98;98304.38;105886;1276;111638;-62
2022/07/26 04:06:15;;;;;;;18.20;9.00;;;;;;;17.41;55.98;98305.08;105923;1273;96600;-63
2022/07/26 04:08:43;;;;;;;18.60;8.50;;;;;;;17.43;55.95;98300.44;105980;1273;107701;-63
2022/07/26 04:11:11;;;;;;;21.20;9.20;;;;;;;17.44;55.93;98295.05;105966;1273;95304;-64
2022/07/26 04:13:39;;;;;;;19.00;7.90;;;;;;;17.44;55.98;98294.35;105993;1276;97738;-65
2022/07/26 04:16:07;;;;;;;16.60;7.40;;;;;;;17.45;56.08;98291.46;105766;1274;111914;-62
2022/07/26 04:18:35;;;;;;;15.60;7.20;;;;;;;17.42;55.83;98290.42;105880;1276;97960;-64
2022/07/26 04:21:03;;;;;;;21.10;8.80;;;;;;;17.41;56.22;98285.52;105907;1276;108854;-64
2022/07/26 04:23:31;;;;;;;20.10;8.70;;;;;;;17.40;56.23;98284.71;105925;1274;97986;-63
2022/07/26 04:26:00;;;;;;;17.10;8.20;;;;;;;17.41;56.45;98277.63;105930;1274;97899;-65
2022/07/26 04:28:27;;;;;;;17.80;7.90;;;;;;;17.47;56.49;98274.34;105939;1273;111785;-63
2022/07/26 04:30:57;;;;;;;18.00;8.10;;;;;;;17.53;56.72;98275.45;105927;1274;97705;-64
2022/07/26 04:33:24;;;;;;;15.70;6.90;;;;;;;17.59;56.65;98277.47;106038;1276;107730;-64
2022/07/26 04:35:53;;;;;;;12.60;6.30;;;;;;;17.65;56.66;98281.07;105937;1274;97988;-63
2022/07/26 04:38:21;;;;;;;14.30;6.40;;;;;;;17.69;56.79;98276.14;105987;1273;97865;-64
2022/07/26 04:40:50;;;;;;;12.90;5.40;;;;;;;17.74;56.60;98275.16;105959;1273;111194;-64
2022/07/26 04:43:18;;;;;;;15.00;6.00;;;;;;;17.76;56.66;98271.48;105969;1273;96436;-64
2022/07/26 04:45:47;;;;;;;11.20;5.50;;;;;;;17.79;56.69;98269.20;105921;1273;108393;-65
2022/07/26 04:48:15;;;;;;;12.10;5.40;;;;;;;17.83;56.61;98263.41;105930;1273;95274;-65
2022/07/26 04:50:44;;;;;;;9.90;5.30;;;;;;;17.86;56.80;98262.85;105938;1273;97899;-63
2022/07/26 04:53:12;;;;;;;11.90;5.40;;;;;;;17.90;56.72;98259.44;105966;1273;111334;-64
2022/07/26 04:55:40;;;;;;;12.40;5.50;;;;;;;17.92;56.87;98257.13;105974;1273;97887;-65
2022/07/26 04:58:09;;;;;;;10.30;5.10;;;;;;;17.95;56.90;98257.55;105980;1273;107466;-63
2022/07/26 05:00:37;;;;;;;9.60;4.70;;;;;;;17.98;56.89;98263.42;105966;1273;97938;-65
2022/07/26 05:03:25;;;;;;;10.70;4.90;;;;;;;18.02;57.10;98270.74;105893;1274;98419;-64
2022/07/26 05:05:52;;;;;;;10.00;5.00;;;;;;;18.05;57.13;98275.23;105997;1273;112857;-65
2022/07/26 05:08:20;;;;;;;12.70;4.70;;;;;;;18.10;57.27;98274.29;105971;1273;97921;-63
2022/07/26 05:10:48;;;;;;;9.50;5.00;;;;;;;18.14;57.26;98275.80;106000;1274;108423;-63
2022/07/26 05:13:22;;;;;;;11.90;5.20;;;;;;;18.21;57.33;98279.73;106012;1273;97946;-66
2022/07/26 05:15:58;;;;;;;10.20;4.70;;;;;;;18.27;57.24;98271.80;106023;1273;97842;-63
2022/07/26 05:18:28;;;;;;;14.30;4.90;;;;;;;18.32;57.10;98274.41;106036;1273;111495;-64
2022/07/26 05:21:10;;;;;;;12.20;5.20;;;;;;;18.37;57.43;98272.63;105916;1276;96500;-65
2022/07/26 05:23:40;;;;;;;12.80;5.30;;;;;;;18.41;57.35;98268.11;106060;1273;107210;-64
2022/07/26 05:26:10;;;;;;;12.60;5.00;;;;;;;18.47;57.22;98267.79;106089;1273;97984;-62
2022/07/26 05:28:38;;;;;;;11.60;5.20;;;;;;;18.54;57.52;98274.43;106106;1273;97879;-64
2022/07/26 05:31:06;;;;;;;11.90;5.80;;;;;;;18.59;57.43;98272.89;106023;1273;110735;-65
2022/07/26 05:33:34;;;;;;;11.00;5.00;;;;;;;18.64;57.54;98278.27;105998;1274;97905;-65
2022/07/26 05:36:03;;;;;;;11.20;4.80;;;;;;;18.67;57.40;98276.55;105994;1273;107136;-64
2022/07/26 05:38:32;;;;;;;12.10;5.20;;;;;;;18.71;57.44;98273.39;105997;1273;97879;-63
2022/07/26 05:41:00;;;;;;;14.70;5.30;;;;;;;18.76;57.41;98269.59;106008;1273;97870;-63
2022/07/26 05:43:28;;;;;;;10.00;4.90;;;;;;;18.82;57.47;98270.42;105960;1273;111794;-63
2022/07/26 05:46:09;;;;;;;10.10;4.60;;;;;;;18.87;57.76;98269.05;106035;1273;97933;-64
2022/07/26 05:48:38;;;;;;;10.90;4.70;;;;;;;18.94;57.63;98265.05;106024;1273;107729;-63
2022/07/26 05:51:07;;;;;;;11.90;4.90;;;;;;;19.00;57.75;98274.33;105952;1273;97900;-64
2022/07/26 05:53:36;;;;;;;10.60;5.20;;;;;;;19.06;57.77;98273.77;106032;1273;95245;-62
2022/07/26 05:56:05;;;;;;;13.00;5.20;;;;;;;19.14;57.68;98277.17;106130;1273;112290;-65
2022/07/26 05:58:33;;;;;;;10.30;5.00;;;;;;;19.22;57.79;98271.05;106082;1273;97876;-64
2022/07/26 06:01:01;;;;;;;11.30;5.10;;;;;;;19.30;57.78;98273.64;105943;1273;108331;-64
2022/07/26 06:03:31;;;;;;;12.40;4.50;;;;;;;19.37;57.71;98268.63;105922;1274;97842;-64
2022/07/26 06:05:59;;;;;;;9.20;4.40;;;;;;;19.46;57.61;98271.76;105962;1273;97942;-64
2022/07/26 06:08:26;;;;;;;9.90;4.30;;;;;;;19.57;57.72;98270.00;105922;1273;112337;-64
2022/07/26 06:10:55;;;;;;;7.70;4.30;;;;;;;19.66;57.61;98267.91;105949;1274;97960;-64
2022/07/26 06:13:23;;;;;;;9.10;4.60;;;;;;;19.78;57.72;98262.92;105960;1274;108480;-62
2022/07/26 06:15:51;;;;;;;10.90;4.50;;;;;;;19.91;57.71;98260.27;105886;1274;97941;-63
2022/07/26 06:18:19;;;;;;;9.60;4.20;;;;;;;20.04;57.64;98261.81;105921;1274;97382;-64
2022/07/26 06:20:48;;;;;;;7.50;4.70;;;;;;;20.24;57.65;98260.59;105928;1276;111990;-65
2022/07/26 06:23:15;;;;;;;8.50;4.50;;;;;;;20.41;57.62;98264.95;105970;1273;97911;-64
2022/07/26 06:25:43;;;;;;;9.60;4.20;;;;;;;20.52;57.57;98261.23;105908;1273;108331;-66
2022/07/26 06:28:11;;;;;;;11.40;4.90;;;;;;;20.63;57.59;98259.81;105988;1274;97746;-64
2022/07/26 06:30:42;;;;;;;10.70;4.50;;;;;;;20.76;57.61;98254.44;106004;1274;97979;-65
2022/07/26 06:33:10;;;;;;;14.20;4.80;;;;;;;20.89;57.51;98259.33;105931;1273;112024;-66
2022/07/26 06:35:38;;;;;;;10.00;4.60;;;;;;;21.02;57.44;98262.93;105974;1273;96474;-64
2022/07/26 06:38:07;;;;;;;12.00;4.10;;;;;;;21.19;57.50;98262.11;105978;1274;107469;-64
2022/07/26 06:40:35;;;;;;;9.50;4.90;;;;;;;21.34;57.23;98260.15;105990;1271;97883;-64
2022/07/26 06:43:03;;;;;;;11.90;4.90;;;;;;;21.49;57.44;98260.41;106002;1273;97891;-64
2022/07/26 06:45:32;;;;;;;8.20;4.40;;;;;;;21.65;57.35;98258.70;106020;1273;111895;-63
2022/07/26 06:48:00;;;;;;;7.40;4.40;;;;;;;21.78;57.32;98258.02;106036;1273;97695;-66
2022/07/26 06:50:28;;;;;;;9.20;4.10;;;;;;;21.89;57.15;98254.85;106027;1274;108349;-64
2022/07/26 06:52:56;;;;;;;10.30;4.20;;;;;;;22.01;57.05;98255.61;106001;1274;96539;-63
2022/07/26 06:55:24;;;;;;;12.30;4.60;;;;;;;22.12;57.10;98256.98;106071;1274;97850;-65
2022/07/26 06:57:52;;;;;;;8.10;4.00;;;;;;;22.25;56.91;98261.98;106108;1274;112031;-63
2022/07/26 07:00:22;;;;;;;9.40;4.10;;;;;;;22.37;56.93;98255.79;105974;1274;95239;-64
2022/07/26 07:02:50;;;;;;;8.10;4.10;;;;;;;22.51;56.79;98250.94;106072;1274;108493;-64
2022/07/26 07:05:17;;;;;;;9.90;4.20;;;;;;;22.65;56.86;98248.59;106006;1274;97876;-63
2022/07/26 07:07:45;;;;;;;9.20;4.20;;;;;;;22.83;56.67;98253.48;106045;1274;95268;-65
2022/07/26 07:10:14;;;;;;;16.90;5.50;;;;;;;23.15;56.46;98256.30;106020;1274;112082;-66
2022/07/26 07:12:43;;;;;;;14.20;4.40;;;;;;;23.86;56.49;98248.27;106031;1273;97898;-65
2022/07/26 07:15:11;;;;;;;9.80;4.40;;;;;;;24.80;56.45;98247.36;106137;1273;107536;-67
2022/07/26 07:17:39;;;;;;;10.00;4.10;;;;;;;25.84;56.40;98247.27;106046;1274;97863;-66
2022/07/26 07:20:08;;;;;;;14.20;4.80;;;;;;;26.75;56.33;98246.89;105977;1274;95225;-66
2022/07/26 07:22:36;;;;;;;13.10;4.20;;;;;;;27.44;55.58;98242.74;106032;1274;111454;-66
2022/07/26 07:25:04;;;;;;;7.80;3.60;;;;;;;28.10;55.14;98244.66;106045;1273;97947;-66
2022/07/26 07:27:33;;;;;;;6.80;3.80;;;;;;;28.67;54.70;98247.69;106000;1274;107789;-66
2022/07/26 07:30:03;;;;;;;17.30;4.50;;;;;;;29.34;54.22;98245.35;106068;1274;95270;-66
2022/07/26 07:32:31;;;;;;;10.90;4.30;;;;;;;30.42;53.57;98247.85;106110;1274;95188;-66
2022/07/26 07:35:01;;;;;;;10.70;3.90;;;;;;;31.54;53.40;98249.09;106025;1273;112317;-66
2022/07/26 07:37:35;;;;;;;8.50;4.00;;;;;;;32.51;53.17;98242.45;106135;1274;98425;-66
2022/07/26 07:40:21;;;;;;;10.20;4.30;;;;;;;33.15;53.14;98241.32;106025;1273;108460;-66
2022/07/26 07:42:50;;;;;;;10.70;3.90;;;;;;;33.19;52.95;98241.95;105996;1274;98676;-66
2022/07/26 07:45:18;;;;;;;11.50;4.30;;;;;;;33.28;52.15;98244.80;106023;1273;97870;-67
2022/07/26 07:47:45;;;;;;;10.30;4.30;;;;;;;33.73;51.43;98243.16;105989;1273;111790;-66
2022/07/26 07:50:13;;;;;;;7.70;3.60;;;;;;;34.26;50.43;98240.73;106004;1273;98372;-66
2022/07/26 07:52:41;;;;;;;8.10;4.30;;;;;;;34.46;49.33;98239.48;105976;1274;108292;-67
2022/07/26 07:55:09;;;;;;;9.40;3.60;;;;;;;34.35;48.76;98242.82;106103;1274;96573;-67
2022/07/26 07:57:57;;;;;;;12.00;4.20;;;;;;;35.01;48.04;98239.84;106148;1274;97882;-68
2022/07/26 08:00:25;;;;;;;10.90;4.20;;;;;;;36.04;47.93;98241.25;106070;1274;112064;-70
2022/07/26 08:02:59;;;;;;;10.00;3.70;;;;;;;37.05;47.08;98236.34;106004;1274;98358;-67
2022/07/26 08:05:29;;;;;;;13.00;4.20;;;;;;;37.38;47.41;98239.64;106028;1274;108039;-65
2022/07/26 08:07:58;;;;;;;8.40;3.50;;;;;;;37.86;46.21;98239.71;106012;1274;97867;-66
2022/07/26 08:10:28;;;;;;;11.20;4.10;;;;;;;38.50;45.59;98241.88;106079;1274;98463;-66
2022/07/26 08:12:56;;;;;;;10.60;4.00;;;;;;;39.37;45.26;98239.91;106074;1274;112683;-64
2022/07/26 08:15:26;;;;;;;7.30;3.70;;;;;;;39.96;44.55;98242.96;106189;1273;96399;-66
2022/07/26 08:17:57;;;;;;;12.90;3.50;;;;;;;40.43;43.89;98237.28;106095;1273;108412;-62
2022/07/26 08:20:26;;;;;;;15.40;3.80;;;;;;;40.57;43.04;98237.85;106105;1274;97970;-66
2022/07/26 08:22:54;;;;;;;14.20;3.90;;;;;;;40.93;42.54;98239.65;106176;1274;98113;-66
2022/07/26 08:25:22;;;;;;;6.30;3.50;;;;;;;41.36;42.17;98233.00;106173;1274;111537;-66
2022/07/26 08:27:51;;;;;;;8.70;3.50;;;;;;;41.89;41.62;98233.23;106178;1274;96958;-67
2022/07/26 08:30:39;;;;;;;11.60;3.80;;;;;;;42.59;40.75;98233.67;106061;1273;108417;-67
2022/07/26 08:33:08;;;;;;;7.20;3.90;;;;;;;43.12;40.28;98237.72;106006;1273;97959;-67
2022/07/26 08:35:36;;;;;;;5.30;3.40;;;;;;;43.52;39.84;98241.48;106062;1273;97847;-65
2022/07/26 08:38:04;;;;;;;11.40;3.60;;;;;;;43.76;38.99;98242.79;106004;1274;112013;-67
2022/07/26 08:40:32;;;;;;;13.60;4.40;;;;;;;44.07;38.63;98244.17;106031;1274;98410;-67
2022/07/26 08:43:01;;;;;;;10.40;3.60;;;;;;;44.06;37.43;98246.79;106001;1273;107762;-67
2022/07/26 08:45:30;;;;;;;8.50;3.60;;;;;;;44.29;37.09;98253.38;105973;1274;96493;-67
2022/07/26 08:48:00;;;;;;;11.40;3.80;;;;;;;44.37;36.23;98260.09;106110;1274;98252;-67
2022/07/26 08:50:47;;;;;;;5.80;3.30;;;;;;;44.40;35.42;98265.36;105991;1273;111991;-67
2022/07/26 08:53:15;;;;;;;6.00;3.20;;;;;;;44.66;35.15;98259.04;106052;1274;95695;-68
2022/07/26 08:55:43;;;;;;;12.00;3.80;;;;;;;44.86;34.64;98254.45;106120;1274;108351;-67
2022/07/26 08:58:36;;;;;;;4.80;3.20;;;;;;;44.76;33.76;98261.39;106013;1274;97890;-66
2022/07/26 09:01:13;;;;;;;8.80;3.80;;;;;;;44.83;33.42;98260.95;106128;1276;95198;-69
2022/07/26 09:03:44;;;;;;;8.30;3.30;;;;;;;45.11;32.71;98255.56;106185;1274;112006;-68
2022/07/26 09:06:18;;;;;;;8.30;3.80;;;;;;;45.24;32.27;98258.02;106183;1274;98547;-68
2022/07/26 09:08:51;;;;;;;9.00;4.10;;;;;;;45.32;31.80;98256.23;106179;1274;107637;-68
2022/07/26 09:11:22;;;;;;;7.70;3.70;;;;;;;45.14;31.35;98250.41;106036;1274;95285;-68
2022/07/26 09:13:50;;;;;;;;;;;;;;;44.83;30.94;98247.70;106016;1274;97879;-68
2022/07/26 09:16:19;;;;;;;8.40;3.60;;;;;;;44.49;30.77;98252.90;106186;1273;111945;-68
2022/07/26 09:18:48;;;;;;;6.20;3.60;;;;;;;44.28;30.37;98255.44;106017;1274;98366;-68
2022/07/26 09:21:45;;;;;;;9.20;4.10;;;;;;;44.36;29.77;98254.29;105993;1274;108304;-68
2022/07/26 09:24:49;;;;;;;7.70;3.60;;;;;;;44.69;29.54;98257.36;105992;1276;95215;-68
2022/07/26 09:27:17;;;;;;;9.30;4.10;;;;;;;44.54;28.86;98262.23;105720;1280;97448;-67
2022/07/26 09:29:48;;;;;;;7.80;3.80;;;;;;;43.96;28.40;98258.83;106071;1274;111547;-70
2022/07/26 09:32:17;;;;;;;;;;;;;;;43.38;27.98;98261.42;106239;1274;97939;-68
2022/07/26 09:35:08;;;;;;;8.90;4.10;;;;;;;42.93;28.37;98255.55;106067;1274;108190;-67
2022/07/26 09:37:56;;;;;;;8.20;3.90;;;;;;;42.59;27.91;98259.02;106052;1274;97960;-67
2022/07/26 09:40:33;;;;;;;12.70;4.30;;;;;;;42.29;27.43;98258.88;106140;1274;95264;-68
2022/07/26 09:43:04;;;;;;;12.30;4.40;;;;;;;42.01;27.23;98258.33;106151;1273;111456;-69
2022/07/26 09:45:33;;;;;;;;;;;;;;;41.89;27.08;98262.16;106225;1273;97982;-70
2022/07/26 09:48:02;;;;;;;7.70;4.20;;;;;;;41.52;26.73;98260.80;106161;1274;107706;-68
2022/07/26 09:50:32;;;;;;;10.90;4.70;;;;;;;41.14;26.72;98262.53;105964;1273;97981;-68
2022/07/26 09:53:03;;;;;;;12.40;4.90;;;;;;;41.03;26.37;98265.20;105994;1273;97786;-68
2022/07/26 09:55:33;;;;;;;8.80;5.20;;;;;;;40.84;26.40;98264.94;106006;1274;111775;-69
2022/07/26 09:58:13;;;;;;;13.10;5.40;;;;;;;40.42;26.37;98259.86;106035;1274;95465;-71
2022/07/26 10:00:42;;;;;;;10.00;5.60;;;;;;;39.80;26.02;98270.08;106129;1273;107894;-69
2022/07/26 10:03:10;;;;;;;11.90;5.30;;;;;;;39.26;26.04;98268.83;106131;1274;95906;-69
2022/07/26 10:05:39;;;;;;;11.70;5.70;;;;;;;39.02;26.07;98270.61;106105;1274;96235;-68
2022/07/26 10:08:08;;;;;;;11.00;5.70;;;;;;;38.67;26.05;98269.84;106045;1274;112147;-68
2022/07/26 10:10:47;;;;;;;11.30;6.30;;;;;;;38.25;26.23;98267.80;106075;1274;95690;-72
2022/07/26 10:13:16;;;;;;;10.40;5.80;;;;;;;38.01;26.25;98266.86;106097;1274;108411;-72
2022/07/26 10:15:50;;;;;;;9.60;5.50;;;;;;;37.81;26.32;98267.96;106040;1274;95270;-67
2022/07/26 10:18:36;;;;;;;15.20;6.60;;;;;;;37.44;26.02;98271.45;106126;1274;97954;-68
2022/07/26 10:21:31;;;;;;;13.10;6.40;;;;;;;36.73;26.25;98271.67;106206;1274;111878;-68
2022/07/26 10:24:01;;;;;;;13.60;6.70;;;;;;;36.11;26.07;98267.10;106201;1274;97637;-71
2022/07/26 10:26:32;;;;;;;13.60;6.20;;;;;;;35.58;26.36;98266.52;106140;1274;107736;-71
2022/07/26 10:29:15;;;;;;;12.30;6.10;;;;;;;35.35;26.54;98264.55;106095;1274;97902;-68
2022/07/26 10:31:47;;;;;;;13.00;6.50;;;;;;;35.03;26.43;98263.42;106034;1274;97866;-65
2022/07/26 10:34:35;;;;;;;11.90;7.00;;;;;;;34.71;26.28;98269.03;106000;1274;111796;-65
2022/07/26 10:37:07;;;;;;;19.30;7.50;;;;;;;34.19;26.57;98267.63;106150;1274;98333;-65
2022/07/26 10:39:37;;;;;;;18.60;7.80;;;;;;;33.88;26.68;98269.41;106120;1274;107748;-64
2022/07/26 10:42:10;;;;;;;13.60;7.10;;;;;;;33.69;27.19;98259.63;106155;1274;97973;-66
2022/07/26 10:44:43;;;;;;;16.00;7.40;;;;;;;33.63;27.08;98259.61;106178;1274;97860;-66
2022/07/26 10:47:17;;;;;;;14.20;6.20;;;;;;;33.49;27.13;98270.36;106112;1274;111435;-65
2022/07/26 10:49:58;;;;;;;13.90;7.30;;;;;;;33.31;27.46;98275.25;106103;1274;97138;-66
2022/07/26 10:52:30;;;;;;;12.80;7.40;;;;;;;33.09;27.71;98275.44;106015;1274;108360;-65
2022/07/26 10:54:58;;;;;;;15.80;8.40;;;;;;;32.79;27.74;98276.84;106126;1274;97957;-67
2022/07/26 10:57:43;;;;;;;16.20;8.10;;;;;;;32.50;27.91;98272.45;106149;1273;95307;-66
2022/07/26 11:00:12;;;;;;;18.80;8.60;;;;;;;32.39;28.18;98278.58;106134;1273;111542;-65
2022/07/26 11:02:42;;;;;;;16.80;8.50;;;;;;;32.23;28.19;98274.45;106182;1274;98413;-64
2022/07/26 11:05:18;;;;;;;20.20;9.80;;;;;;;32.15;28.82;98279.41;106073;1274;107824;-65
2022/07/26 11:08:07;;;;;;;19.30;9.10;;;;;;;32.02;28.81;98268.92;106103;1273;95378;-66
2022/07/26 11:10:40;;;;;;;16.00;9.40;;;;;;;31.88;29.29;98277.81;106041;1273;97115;-66
2022/07/26 11:13:14;;;;;;;20.80;9.60;;;;;;;31.76;29.33;98277.21;106002;1275;111425;-65
2022/07/26 11:15:47;;;;;;;17.90;9.30;;;;;;;31.65;29.59;98276.02;106090;1273;98356;-65
2022/07/26 11:18:27;;;;;;;20.60;9.20;;;;;;;31.56;29.64;98276.86;106078;1273;107623;-65
2022/07/26 11:21:11;;;;;;;20.90;9.80;;;;;;;31.44;29.86;98273.95;106108;1274;97985;-65
2022/07/26 11:23:43;;;;;;;19.20;9.20;;;;;;;31.29;30.19;98284.77;106057;1274;95209;-63
2022/07/26 11:26:20;;;;;;;32.40;10.10;;;;;;;31.13;30.32;98279.98;106041;1273;111039;-66
2022/07/26 11:28:58;;;;;;;19.50;9.40;;;;;;;30.96;30.52;98282.86;105989;1274;95592;-65
2022/07/26 11:31:36;;;;;;;22.40;9.80;;;;;;;30.93;30.72;98288.10;106037;1273;106035;-65
2022/07/26 11:34:31;;;;;;;21.10;9.50;;;;;;;30.95;31.13;98283.45;106030;1274;97866;-65
2022/07/26 11:37:04;;;;;;;18.70;8.80;;;;;;;31.04;31.23;98287.39;106065;1274;97861;-65